KADS/ADS METAR and TAF weather

Enter ICAO airport designator
Station Type Date Time Source
KADS METAR 2018/04/23 11:03 UTC NOAA

KADS 231103Z 33009G18KT 10SM OVC012 11/08 A3006


Station Type Date Time Source
KADS Decoded METAR 2018/04/23 11:03 UTC NOAA

Dallas / Addison Airport, TX, United States (KADS) 32-58N 096-50W
Apr 23, 2018 - 07:03 AM EDT / 2018.04.23 1103 UTC
Wind: from the NNW (330 degrees) at 10 MPH (9 KT) gusting to 21 MPH (18 KT):0
Visibility: 10 mile(s):0
Sky conditions: overcast
Temperature: 51 F (11 C)
Dew Point: 46 F (8 C)
Relative Humidity: 81%
Pressure (altimeter): 30.06 in. Hg (1017 hPa)
ob: KADS 231103Z 33009G18KT 10SM OVC012 11/08 A3006
cycle: 11

Station Type Date Time Source
KADS TAF UTC NOAA

Error!


Example: see airport list